createdAt,value
2023-05-26T00:00:25.642Z,96302.00
2023-05-26T00:01:26.681Z,96300.00
2023-05-26T00:02:26.779Z,96302.00
2023-05-26T00:03:25.872Z,96300.00
2023-05-26T00:04:26.828Z,96302.00
2023-05-26T00:05:26.821Z,96302.00
2023-05-26T00:06:26.873Z,96304.00
2023-05-26T00:07:26.868Z,96302.00
2023-05-26T00:08:26.897Z,96302.00
2023-05-26T00:09:26.961Z,96302.00
2023-05-26T00:10:25.974Z,96300.00
2023-05-26T00:11:27.018Z,96300.00
2023-05-26T00:12:27.057Z,96302.00
2023-05-26T00:13:27.109Z,96302.00
2023-05-26T00:14:27.126Z,96302.00
2023-05-26T00:15:27.157Z,96299.00
2023-05-26T00:16:27.275Z,96300.00
2023-05-26T00:17:27.245Z,96302.00
2023-05-26T00:18:27.276Z,96302.00
2023-05-26T00:19:27.304Z,96300.00
2023-05-26T00:20:26.424Z,96302.00
2023-05-26T00:21:26.388Z,96302.00
2023-05-26T00:22:26.418Z,96302.00
2023-05-26T00:23:27.452Z,96302.00
2023-05-26T00:24:27.491Z,96299.00
2023-05-26T00:25:26.516Z,96297.00
2023-05-26T00:26:27.569Z,96300.00
2023-05-26T00:27:27.593Z,96299.00
2023-05-26T00:28:26.634Z,96300.00
2023-05-26T00:29:29.533Z,96299.00
2023-05-26T00:30:27.652Z,96299.00
2023-05-26T00:31:26.696Z,96300.00
2023-05-26T00:32:26.697Z,96299.00
2023-05-26T00:33:27.643Z,96299.00
2023-05-26T00:34:27.641Z,96299.00
2023-05-26T00:35:27.636Z,96297.00
2023-05-26T00:36:27.617Z,96297.00
2023-05-26T00:37:27.605Z,96295.00
2023-05-26T00:38:27.600Z,96297.00
2023-05-26T00:39:27.612Z,96297.00
2023-05-26T00:40:27.628Z,96297.00
2023-05-26T00:41:27.604Z,96297.00
2023-05-26T00:42:27.580Z,96297.00
2023-05-26T00:43:27.585Z,96297.00
2023-05-26T00:44:26.585Z,96295.00
2023-05-26T00:45:27.596Z,96297.00
2023-05-26T00:46:27.624Z,96300.00
2023-05-26T00:47:27.590Z,96295.00
2023-05-26T00:48:27.563Z,96295.00
2023-05-26T00:49:27.528Z,96299.00
2023-05-26T00:50:26.515Z,96297.00
2023-05-26T00:51:26.523Z,96295.00
2023-05-26T00:52:27.521Z,96295.00
2023-05-26T00:53:27.503Z,96293.00
2023-05-26T00:54:27.494Z,96293.00
2023-05-26T00:55:27.515Z,96293.00
2023-05-26T00:56:26.486Z,96289.00
2023-05-26T00:57:27.477Z,96291.00
2023-05-26T00:58:27.474Z,96291.00
2023-05-26T00:59:27.470Z,96291.00
2023-05-26T01:00:26.450Z,96289.00
2023-05-26T01:01:27.570Z,96291.00
2023-05-26T01:02:27.477Z,96291.00
2023-05-26T01:03:26.491Z,96289.00
2023-05-26T01:04:26.459Z,96291.00
2023-05-26T01:05:26.517Z,96287.00
2023-05-26T01:06:27.568Z,96287.00
2023-05-26T01:07:27.599Z,96289.00
2023-05-26T01:08:26.634Z,96289.00
2023-05-26T01:09:27.682Z,96289.00
2023-05-26T01:10:26.711Z,96287.00
2023-05-26T01:11:27.874Z,96287.00
2023-05-26T01:12:27.825Z,96289.00
2023-05-26T01:13:26.866Z,96289.00
2023-05-26T01:14:27.912Z,96287.00
2023-05-26T01:15:27.960Z,96285.00
2023-05-26T01:16:28.041Z,96289.00
2023-05-26T01:17:27.069Z,96287.00
2023-05-26T01:18:28.078Z,96289.00
2023-05-26T01:19:27.117Z,96287.00
2023-05-26T01:20:28.203Z,96287.00
2023-05-26T01:21:27.213Z,96287.00
2023-05-26T01:22:28.269Z,96285.00
2023-05-26T01:23:27.304Z,96285.00
2023-05-26T01:24:27.362Z,96281.00
2023-05-26T01:25:28.408Z,96285.00
2023-05-26T01:26:28.466Z,96285.00
2023-05-26T01:27:27.515Z,96287.00
2023-05-26T01:28:27.540Z,96289.00
2023-05-26T01:29:28.605Z,96289.00
2023-05-26T01:30:28.657Z,96291.00
2023-05-26T01:31:27.673Z,96291.00
2023-05-26T01:32:28.747Z,96293.00
2023-05-26T01:33:29.028Z,96293.00
2023-05-26T01:34:28.815Z,96291.00
2023-05-26T01:35:27.834Z,96291.00
2023-05-26T01:36:27.895Z,96293.00
2023-05-26T01:37:27.948Z,96293.00
2023-05-26T01:38:28.997Z,96295.00
2023-05-26T01:39:29.040Z,96295.00
2023-05-26T01:40:29.069Z,96295.00
2023-05-26T01:41:29.164Z,96297.00
2023-05-26T01:42:31.979Z,96297.00
2023-05-26T01:43:28.159Z,96299.00
2023-05-26T01:44:29.172Z,96300.00
2023-05-26T01:45:29.153Z,96297.00
2023-05-26T01:46:29.243Z,96299.00
2023-05-26T01:47:29.157Z,96297.00
2023-05-26T01:48:28.140Z,96299.00
2023-05-26T01:49:29.149Z,96297.00
2023-05-26T01:50:28.120Z,96297.00
2023-05-26T01:51:29.130Z,96295.00
2023-05-26T01:52:28.115Z,96295.00
2023-05-26T01:53:28.119Z,96293.00
2023-05-26T01:54:29.109Z,96295.00
2023-05-26T01:55:29.092Z,96295.00
2023-05-26T01:56:29.079Z,96297.00
2023-05-26T01:57:29.090Z,96297.00
2023-05-26T01:58:28.079Z,96297.00
2023-05-26T01:59:28.055Z,96297.00
2023-05-26T02:00:28.057Z,96297.00
2023-05-26T02:01:29.101Z,96297.00
2023-05-26T02:02:29.147Z,96299.00
2023-05-26T02:03:28.151Z,96295.00
2023-05-26T02:04:29.029Z,96297.00
2023-05-26T02:05:28.051Z,96297.00
2023-05-26T02:06:29.024Z,96295.00
2023-05-26T02:07:29.027Z,96297.00
2023-05-26T02:08:29.007Z,96295.00
2023-05-26T02:09:28.984Z,96295.00
2023-05-26T02:10:29.039Z,96295.00
2023-05-26T02:11:28.072Z,96297.00
2023-05-26T02:12:29.128Z,96293.00
2023-05-26T02:13:29.180Z,96291.00
2023-05-26T02:14:28.224Z,96291.00
2023-05-26T02:15:29.294Z,96291.00
2023-05-26T02:16:28.378Z,96293.00
2023-05-26T02:17:28.428Z,96291.00
2023-05-26T02:18:29.460Z,96295.00
2023-05-26T02:19:28.510Z,96291.00
2023-05-26T02:20:29.606Z,96295.00
2023-05-26T02:21:29.624Z,96291.00
2023-05-26T02:22:28.666Z,96293.00
2023-05-26T02:23:28.709Z,96295.00
2023-05-26T02:24:29.756Z,96297.00
2023-05-26T02:25:28.801Z,96299.00
2023-05-26T02:26:28.825Z,96297.00
2023-05-26T02:27:28.896Z,96300.00
2023-05-26T02:28:29.915Z,96299.00
2023-05-26T02:29:29.964Z,96299.00
2023-05-26T02:30:30.021Z,96300.00
2023-05-26T02:31:30.504Z,96300.00
2023-05-26T02:32:29.106Z,96300.00
2023-05-26T02:33:29.045Z,96300.00
2023-05-26T02:34:29.064Z,96300.00
2023-05-26T02:35:30.038Z,96300.00
2023-05-26T02:36:30.038Z,96302.00
2023-05-26T02:37:30.040Z,96300.00
2023-05-26T02:38:30.011Z,96302.00
2023-05-26T02:39:29.003Z,96304.00
2023-05-26T02:40:28.999Z,96302.00
2023-05-26T02:41:29.993Z,96306.00
2023-05-26T02:42:28.991Z,96304.00
2023-05-26T02:43:29.999Z,96304.00
2023-05-26T02:44:29.962Z,96308.00
2023-05-26T02:45:29.973Z,96308.00
2023-05-26T02:46:29.962Z,96306.00
2023-05-26T02:47:30.006Z,96310.00
2023-05-26T02:48:29.952Z,96308.00
2023-05-26T02:49:29.938Z,96308.00
2023-05-26T02:50:28.938Z,96310.00
2023-05-26T02:51:28.932Z,96308.00
2023-05-26T02:52:29.940Z,96310.00
2023-05-26T02:53:29.935Z,96310.00
2023-05-26T02:54:28.931Z,96310.00
2023-05-26T02:55:28.903Z,96310.00
2023-05-26T02:56:28.904Z,96310.00
2023-05-26T02:57:31.421Z,96308.00
2023-05-26T02:58:30.052Z,96308.00
2023-05-26T02:59:30.114Z,96306.00
2023-05-26T03:00:29.136Z,96304.00
2023-05-26T03:01:30.256Z,96304.00
2023-05-26T03:02:29.281Z,96304.00
2023-05-26T03:03:29.398Z,96304.00
2023-05-26T03:04:29.374Z,96306.00
2023-05-26T03:05:30.407Z,96306.00
2023-05-26T03:06:30.461Z,96306.00
2023-05-26T03:07:29.564Z,96308.00
2023-05-26T03:08:29.565Z,96304.00
2023-05-26T03:09:30.656Z,96306.00
2023-05-26T03:10:30.668Z,96306.00
2023-05-26T03:11:29.699Z,96306.00
2023-05-26T03:12:30.775Z,96306.00
2023-05-26T03:13:30.802Z,96306.00
2023-05-26T03:14:30.839Z,96306.00
2023-05-26T03:15:29.902Z,96306.00
2023-05-26T03:16:31.006Z,96304.00
2023-05-26T03:17:30.042Z,96302.00
2023-05-26T03:18:30.002Z,96302.00
2023-05-26T03:19:31.055Z,96300.00
2023-05-26T03:20:31.186Z,96300.00
2023-05-26T03:21:46.534Z,96300.00
2023-05-26T03:22:39.845Z,96304.00
2023-05-26T03:23:31.148Z,96300.00
2023-05-26T03:24:31.155Z,96304.00
2023-05-26T03:25:30.167Z,96302.00
2023-05-26T03:26:31.134Z,96304.00
2023-05-26T03:27:31.121Z,96304.00
2023-05-26T03:28:31.123Z,96308.00
2023-05-26T03:29:31.101Z,96304.00
2023-05-26T03:30:31.122Z,96306.00
2023-05-26T03:31:31.138Z,96308.00
2023-05-26T03:32:30.134Z,96306.00
2023-05-26T03:33:31.092Z,96308.00
2023-05-26T03:34:31.075Z,96308.00
2023-05-26T03:35:31.062Z,96306.00
2023-05-26T03:36:30.083Z,96308.00
2023-05-26T03:37:30.174Z,96310.00
2023-05-26T03:38:30.069Z,96308.00
2023-05-26T03:39:31.036Z,96312.00
2023-05-26T03:40:31.040Z,96310.00
2023-05-26T03:41:31.077Z,96308.00
2023-05-26T03:42:31.026Z,96310.00
2023-05-26T03:43:31.015Z,96312.00
2023-05-26T03:44:31.038Z,96312.00
2023-05-26T03:45:31.015Z,96312.00
2023-05-26T03:46:31.027Z,96308.00
2023-05-26T03:47:30.995Z,96310.00
2023-05-26T03:48:30.978Z,96312.00
2023-05-26T03:49:30.979Z,96308.00
2023-05-26T03:50:30.969Z,96308.00
2023-05-26T03:51:30.969Z,96308.00
2023-05-26T03:52:29.971Z,96312.00
2023-05-26T03:53:29.988Z,96306.00
2023-05-26T03:54:31.014Z,96312.00
2023-05-26T03:55:31.045Z,96314.00
2023-05-26T03:56:31.134Z,96312.00
2023-05-26T03:57:31.169Z,96312.00
2023-05-26T03:58:30.189Z,96316.00
2023-05-26T03:59:30.215Z,96314.00
2023-05-26T04:00:31.259Z,96312.00
2023-05-26T04:01:30.291Z,96312.00
2023-05-26T04:02:31.429Z,96312.00
2023-05-26T04:03:31.385Z,96310.00
2023-05-26T04:04:31.471Z,96310.00
2023-05-26T04:05:31.487Z,96308.00
2023-05-26T04:06:31.508Z,96310.00
2023-05-26T04:07:31.571Z,96306.00
2023-05-26T04:08:30.580Z,96306.00
2023-05-26T04:09:30.615Z,96304.00
2023-05-26T04:10:31.645Z,96304.00
2023-05-26T04:11:31.680Z,96302.00
2023-05-26T04:12:30.692Z,96306.00
2023-05-26T04:13:30.787Z,96306.00
2023-05-26T04:14:31.769Z,96304.00
2023-05-26T04:15:31.824Z,96306.00
2023-05-26T04:16:31.950Z,96308.00
2023-05-26T04:17:30.900Z,96310.00
2023-05-26T04:18:31.925Z,96312.00
2023-05-26T04:19:30.972Z,96314.00
2023-05-26T04:20:32.062Z,96314.00
2023-05-26T04:21:32.039Z,96314.00
2023-05-26T04:22:31.079Z,96316.00
2023-05-26T04:23:32.136Z,96316.00
2023-05-26T04:24:32.166Z,96316.00
2023-05-26T04:25:32.190Z,96318.00
2023-05-26T04:26:32.229Z,96318.00
2023-05-26T04:27:32.248Z,96322.00
2023-05-26T04:28:32.335Z,96322.00
2023-05-26T04:29:32.364Z,96324.00
2023-05-26T04:30:32.399Z,96324.00
2023-05-26T04:31:32.468Z,96324.00
2023-05-26T04:32:31.488Z,96326.00
2023-05-26T04:33:32.512Z,96328.00
2023-05-26T04:34:32.541Z,96328.00
2023-05-26T04:35:31.587Z,96328.00
2023-05-26T04:36:32.604Z,96326.00
2023-05-26T04:37:32.672Z,96324.00
2023-05-26T04:38:32.711Z,96322.00
2023-05-26T04:39:32.767Z,96322.00
2023-05-26T04:40:32.800Z,96320.00
2023-05-26T04:41:32.855Z,96320.00
2023-05-26T04:42:31.849Z,96314.00
2023-05-26T04:43:32.906Z,96314.00
2023-05-26T04:44:32.956Z,96314.00
2023-05-26T04:45:32.972Z,96314.00
2023-05-26T04:46:33.069Z,96314.00
2023-05-26T04:47:33.084Z,96314.00
2023-05-26T04:48:33.118Z,96312.00
2023-05-26T04:49:32.147Z,96312.00
2023-05-26T04:50:32.173Z,96316.00
2023-05-26T04:51:33.202Z,96316.00
2023-05-26T04:52:32.217Z,96314.00
2023-05-26T04:53:32.278Z,96314.00
2023-05-26T04:54:33.298Z,96314.00
2023-05-26T04:55:32.348Z,96314.00
2023-05-26T04:56:32.343Z,96316.00
2023-05-26T04:57:32.378Z,96316.00
2023-05-26T04:58:33.522Z,96316.00
2023-05-26T04:59:33.473Z,96314.00
2023-05-26T05:00:32.528Z,96312.00
2023-05-26T05:01:33.594Z,96312.00
2023-05-26T05:02:33.558Z,96314.00
2023-05-26T05:03:33.247Z,96314.00
2023-05-26T05:04:33.602Z,96312.00
2023-05-26T05:05:32.951Z,96310.00
2023-05-26T05:06:33.966Z,96316.00
2023-05-26T05:07:33.698Z,96312.00
2023-05-26T05:08:32.972Z,96318.00
2023-05-26T05:09:33.783Z,96314.00
2023-05-26T05:10:33.817Z,96314.00
2023-05-26T05:11:32.823Z,96314.00
2023-05-26T05:12:32.851Z,96314.00
2023-05-26T05:13:33.919Z,96314.00
2023-05-26T05:14:32.921Z,96316.00
2023-05-26T05:15:33.962Z,96318.00
2023-05-26T05:16:33.019Z,96316.00
2023-05-26T05:17:34.014Z,96318.00
2023-05-26T05:18:34.022Z,96322.00
2023-05-26T05:19:33.029Z,96318.00
2023-05-26T05:20:34.084Z,96320.00
2023-05-26T05:21:34.038Z,96320.00
2023-05-26T05:22:33.052Z,96318.00
2023-05-26T05:23:33.081Z,96320.00
2023-05-26T05:24:33.096Z,96318.00
2023-05-26T05:25:33.097Z,96322.00
2023-05-26T05:26:34.133Z,96322.00
2023-05-26T05:27:33.259Z,96322.00
2023-05-26T05:28:34.192Z,96326.00
2023-05-26T05:29:33.206Z,96324.00
2023-05-26T05:30:34.226Z,96324.00
2023-05-26T05:31:34.225Z,96326.00
2023-05-26T05:32:34.286Z,96326.00
2023-05-26T05:33:34.341Z,96326.00
2023-05-26T05:34:34.274Z,96326.00
2023-05-26T05:35:33.357Z,96326.00
2023-05-26T05:36:33.288Z,96330.00
2023-05-26T05:37:34.313Z,96330.00
2023-05-26T05:38:33.318Z,96332.00
2023-05-26T05:39:33.329Z,96328.00
2023-05-26T05:40:34.366Z,96332.00
2023-05-26T05:41:33.406Z,96330.00
2023-05-26T05:42:34.473Z,96330.00
2023-05-26T05:43:34.499Z,96332.00
2023-05-26T05:44:33.537Z,96332.00
2023-05-26T05:45:34.579Z,96334.00
2023-05-26T05:46:33.672Z,96336.00
2023-05-26T05:47:33.711Z,96336.00
2023-05-26T05:48:34.734Z,96334.00
2023-05-26T05:49:34.771Z,96334.00
2023-05-26T05:50:33.815Z,96334.00
2023-05-26T05:51:34.883Z,96338.00
2023-05-26T05:52:34.907Z,96336.00
2023-05-26T05:53:35.001Z,96336.00
2023-05-26T05:54:34.996Z,96332.00
2023-05-26T05:55:35.006Z,96334.00
2023-05-26T05:56:34.048Z,96332.00
2023-05-26T05:57:35.034Z,96330.00
2023-05-26T05:58:35.045Z,96334.00
2023-05-26T05:59:34.112Z,96334.00
2023-05-26T06:00:34.134Z,96334.00
2023-05-26T06:01:35.182Z,96330.00
2023-05-26T06:02:34.322Z,96336.00
2023-05-26T06:03:34.476Z,96334.00
2023-05-26T06:04:35.417Z,96338.00
2023-05-26T06:05:34.357Z,96340.00
2023-05-26T06:06:34.493Z,96338.00
2023-05-26T06:07:35.429Z,96340.00
2023-05-26T06:08:35.446Z,96342.00
2023-05-26T06:09:35.513Z,96344.00
2023-05-26T06:10:35.523Z,96340.00
2023-05-26T06:11:34.543Z,96336.00
2023-05-26T06:12:35.552Z,96338.00
2023-05-26T06:13:35.605Z,96340.00
2023-05-26T06:14:35.654Z,96340.00
2023-05-26T06:15:35.668Z,96342.00
2023-05-26T06:16:35.809Z,96338.00
2023-05-26T06:17:35.856Z,96336.00
2023-05-26T06:18:35.931Z,96336.00
2023-05-26T06:19:34.840Z,96338.00
2023-05-26T06:20:35.943Z,96344.00
2023-05-26T06:21:34.945Z,96342.00
2023-05-26T06:22:35.991Z,96342.00
2023-05-26T06:23:36.428Z,96340.00
2023-05-26T06:24:36.055Z,96340.00
2023-05-26T06:25:36.086Z,96340.00
2023-05-26T06:26:36.128Z,96342.00
2023-05-26T06:27:36.156Z,96344.00
2023-05-26T06:28:35.234Z,96344.00
2023-05-26T06:29:35.234Z,96346.00
2023-05-26T06:30:36.270Z,96346.00
2023-05-26T06:31:35.380Z,96344.00
2023-05-26T06:32:35.432Z,96344.00
2023-05-26T06:33:35.386Z,96347.00
2023-05-26T06:34:35.440Z,96347.00
2023-05-26T06:35:36.454Z,96347.00
2023-05-26T06:36:35.501Z,96351.00
2023-05-26T06:37:36.505Z,96353.00
2023-05-26T06:38:36.544Z,96349.00
2023-05-26T06:39:35.553Z,96347.00
2023-05-26T06:40:36.613Z,96347.00
2023-05-26T06:41:35.655Z,96351.00
2023-05-26T06:42:36.700Z,96349.00
2023-05-26T06:43:35.755Z,96351.00
2023-05-26T06:44:35.767Z,96349.00
2023-05-26T06:45:36.775Z,96347.00
2023-05-26T06:46:36.812Z,96349.00
2023-05-26T06:47:36.906Z,96347.00
2023-05-26T06:48:35.866Z,96347.00
2023-05-26T06:49:37.387Z,96351.00
2023-05-26T06:50:36.909Z,96351.00
2023-05-26T06:51:35.900Z,96349.00
2023-05-26T06:52:36.982Z,96351.00
2023-05-26T06:53:36.965Z,96347.00
2023-05-26T06:54:36.984Z,96347.00
2023-05-26T06:55:37.017Z,96349.00
2023-05-26T06:56:37.030Z,96347.00
2023-05-26T06:57:37.051Z,96349.00
2023-05-26T06:58:37.052Z,96347.00
2023-05-26T06:59:37.091Z,96347.00
2023-05-26T07:00:36.176Z,96349.00
2023-05-26T07:01:37.228Z,96349.00
2023-05-26T07:02:37.265Z,96349.00
2023-05-26T07:03:37.260Z,96349.00
2023-05-26T07:04:37.330Z,96349.00
2023-05-26T07:05:38.065Z,96349.00
2023-05-26T07:06:46.571Z,96349.00
2023-05-26T07:07:37.454Z,96349.00
2023-05-26T07:08:37.424Z,96351.00
2023-05-26T07:09:36.430Z,96349.00
2023-05-26T07:10:37.398Z,96349.00
2023-05-26T07:11:36.377Z,96349.00
2023-05-26T07:12:36.397Z,96349.00
2023-05-26T07:13:36.381Z,96347.00
2023-05-26T07:14:38.582Z,96349.00
2023-05-26T07:15:36.390Z,96346.00
2023-05-26T07:16:37.520Z,96351.00
2023-05-26T07:17:36.466Z,96349.00
2023-05-26T07:18:37.520Z,96349.00
2023-05-26T07:19:37.525Z,96347.00
2023-05-26T07:20:36.684Z,96344.00
2023-05-26T07:21:36.634Z,96347.00
2023-05-26T07:22:36.689Z,96347.00
2023-05-26T07:23:36.713Z,96347.00
2023-05-26T07:24:37.780Z,96347.00
2023-05-26T07:25:37.816Z,96349.00
2023-05-26T07:26:37.877Z,96349.00
2023-05-26T07:27:36.948Z,96347.00
2023-05-26T07:28:37.976Z,96346.00
2023-05-26T07:29:38.012Z,96346.00
2023-05-26T07:30:38.072Z,96344.00
2023-05-26T07:31:38.170Z,96346.00
2023-05-26T07:32:38.213Z,96344.00
2023-05-26T07:33:38.303Z,96346.00
2023-05-26T07:34:38.261Z,96347.00
2023-05-26T07:35:38.260Z,96347.00
2023-05-26T07:36:38.259Z,96347.00
2023-05-26T07:37:38.263Z,96346.00
2023-05-26T07:38:38.327Z,96346.00
2023-05-26T07:39:37.298Z,96342.00
2023-05-26T07:40:38.303Z,96342.00
2023-05-26T07:41:37.319Z,96338.00
2023-05-26T07:42:37.332Z,96344.00
2023-05-26T07:43:38.361Z,96344.00
2023-05-26T07:44:37.354Z,96340.00
2023-05-26T07:45:38.436Z,96342.00
2023-05-26T07:46:38.531Z,96340.00
2023-05-26T07:47:38.457Z,96340.00
2023-05-26T07:48:38.440Z,96342.00
2023-05-26T07:49:37.927Z,96342.00
2023-05-26T07:50:37.534Z,96340.00
2023-05-26T07:51:38.560Z,96340.00
2023-05-26T07:52:38.593Z,96338.00
2023-05-26T07:53:37.590Z,96338.00
2023-05-26T07:54:37.945Z,96340.00
2023-05-26T07:55:37.601Z,96336.00
2023-05-26T07:56:38.621Z,96336.00
2023-05-26T07:57:37.651Z,96340.00
2023-05-26T07:58:38.707Z,96340.00
2023-05-26T07:59:37.710Z,96338.00
2023-05-26T08:00:38.770Z,96340.00
2023-05-26T08:01:37.749Z,96336.00
2023-05-26T08:02:38.902Z,96340.00
2023-05-26T08:03:38.900Z,96336.00
2023-05-26T08:04:37.841Z,96332.00
2023-05-26T08:05:38.984Z,96334.00
2023-05-26T08:06:38.007Z,96334.00
2023-05-26T08:07:37.983Z,96334.00
2023-05-26T08:08:39.021Z,96334.00
2023-05-26T08:09:38.087Z,96328.00
2023-05-26T08:10:38.154Z,96330.00
2023-05-26T08:11:39.112Z,96326.00
2023-05-26T08:12:38.119Z,96328.00
2023-05-26T08:13:39.178Z,96328.00
2023-05-26T08:14:39.283Z,96324.00
2023-05-26T08:15:39.314Z,96328.00
2023-05-26T08:16:39.456Z,96326.00
2023-05-26T08:17:39.397Z,96326.00
2023-05-26T08:18:39.404Z,96326.00
2023-05-26T08:19:38.464Z,96324.00
2023-05-26T08:20:39.559Z,96324.00
2023-05-26T08:21:39.522Z,96324.00
2023-05-26T08:22:39.560Z,96326.00
2023-05-26T08:23:39.605Z,96324.00
2023-05-26T08:24:39.636Z,96320.00
2023-05-26T08:25:39.695Z,96324.00
2023-05-26T08:26:39.714Z,96318.00
2023-05-26T08:27:39.730Z,96318.00
2023-05-26T08:28:39.773Z,96320.00
2023-05-26T08:29:39.781Z,96322.00
2023-05-26T08:30:39.798Z,96318.00
2023-05-26T08:31:39.867Z,96316.00
2023-05-26T08:32:39.009Z,96316.00
2023-05-26T08:33:38.835Z,96318.00
2023-05-26T08:34:39.862Z,96318.00
2023-05-26T08:35:39.859Z,96316.00
2023-05-26T08:36:39.883Z,96316.00
2023-05-26T08:37:38.896Z,96318.00
2023-05-26T08:38:39.908Z,96320.00
2023-05-26T08:39:39.933Z,96320.00
2023-05-26T08:40:39.927Z,96318.00
2023-05-26T08:41:39.132Z,96314.00
2023-05-26T08:42:38.973Z,96316.00
2023-05-26T08:43:46.517Z,96314.00
2023-05-26T08:44:40.470Z,96318.00
2023-05-26T08:45:39.972Z,96316.00
2023-05-26T08:46:39.966Z,96316.00
2023-05-26T08:47:39.042Z,96314.00
2023-05-26T08:48:39.937Z,96308.00
2023-05-26T08:49:39.972Z,96306.00
2023-05-26T08:50:38.933Z,96312.00
2023-05-26T08:51:39.942Z,96312.00
2023-05-26T08:52:38.920Z,96308.00
2023-05-26T08:53:38.897Z,96308.00
2023-05-26T08:54:39.933Z,96306.00
2023-05-26T08:55:39.940Z,96304.00
2023-05-26T08:56:39.914Z,96306.00
2023-05-26T08:57:39.927Z,96304.00
2023-05-26T08:58:38.889Z,96302.00
2023-05-26T08:59:38.946Z,96304.00
2023-05-26T09:00:38.863Z,96300.00
2023-05-26T09:01:39.980Z,96302.00
2023-05-26T09:02:39.885Z,96304.00
2023-05-26T09:03:39.879Z,96302.00
2023-05-26T09:04:38.843Z,96304.00
2023-05-26T09:05:39.821Z,96302.00
2023-05-26T09:06:38.805Z,96302.00
2023-05-26T09:07:39.812Z,96304.00
2023-05-26T09:08:39.831Z,96300.00
2023-05-26T09:09:38.800Z,96300.00
2023-05-26T09:10:38.806Z,96299.00
2023-05-26T09:11:41.688Z,96302.00
2023-05-26T09:12:38.790Z,96300.00
2023-05-26T09:13:38.778Z,96300.00
2023-05-26T09:14:39.779Z,96302.00
2023-05-26T09:15:38.779Z,96300.00
2023-05-26T09:16:39.810Z,96300.00
2023-05-26T09:17:39.851Z,96297.00
2023-05-26T09:18:39.734Z,96297.00
2023-05-26T09:19:38.762Z,96297.00
2023-05-26T09:20:38.798Z,96297.00
2023-05-26T09:21:39.733Z,96295.00
2023-05-26T09:22:38.695Z,96289.00
2023-05-26T09:23:38.710Z,96289.00
2023-05-26T09:24:38.702Z,96287.00
2023-05-26T09:25:38.740Z,96291.00
2023-05-26T09:26:39.684Z,96289.00
2023-05-26T09:27:39.692Z,96289.00
2023-05-26T09:28:38.697Z,96287.00
2023-05-26T09:29:38.783Z,96291.00
2023-05-26T09:30:39.683Z,96287.00
2023-05-26T09:31:39.694Z,96285.00
2023-05-26T09:32:38.683Z,96283.00
2023-05-26T09:33:39.686Z,96285.00
2023-05-26T09:34:38.655Z,96289.00
2023-05-26T09:35:38.646Z,96289.00
2023-05-26T09:36:39.630Z,96287.00
2023-05-26T09:37:39.608Z,96285.00
2023-05-26T09:38:39.628Z,96283.00
2023-05-26T09:39:39.624Z,96285.00
2023-05-26T09:40:39.618Z,96285.00
2023-05-26T09:41:39.616Z,96285.00
2023-05-26T09:42:39.610Z,96285.00
2023-05-26T09:43:39.578Z,96285.00
2023-05-26T09:44:39.588Z,96285.00
2023-05-26T09:45:39.724Z,96289.00
2023-05-26T09:46:38.586Z,96285.00
2023-05-26T09:47:38.581Z,96287.00
2023-05-26T09:48:39.552Z,96287.00
2023-05-26T09:49:39.987Z,96287.00
2023-05-26T09:50:39.541Z,96289.00
2023-05-26T09:51:39.528Z,96287.00
2023-05-26T09:52:39.532Z,96291.00
2023-05-26T09:53:39.522Z,96287.00
2023-05-26T09:54:39.562Z,96287.00
2023-05-26T09:55:39.509Z,96285.00
2023-05-26T09:56:38.518Z,96287.00
2023-05-26T09:57:38.515Z,96285.00
2023-05-26T09:58:39.479Z,96285.00
2023-05-26T09:59:38.531Z,96285.00
2023-05-26T10:00:39.520Z,96283.00
2023-05-26T10:01:38.614Z,96281.00
2023-05-26T10:02:39.653Z,96277.00
2023-05-26T10:03:39.623Z,96281.00
2023-05-26T10:04:39.649Z,96277.00
2023-05-26T10:05:39.689Z,96277.00
2023-05-26T10:06:39.709Z,96279.00
2023-05-26T10:07:39.684Z,96277.00
2023-05-26T10:08:39.711Z,96273.00
2023-05-26T10:09:39.717Z,96273.00
2023-05-26T10:10:39.710Z,96275.00
2023-05-26T10:11:39.752Z,96271.00
2023-05-26T10:12:39.751Z,96271.00
2023-05-26T10:13:38.748Z,96269.00
2023-05-26T10:14:39.782Z,96269.00
2023-05-26T10:15:39.777Z,96269.00
2023-05-26T10:16:39.864Z,96269.00
2023-05-26T10:17:39.954Z,96267.00
2023-05-26T10:18:39.910Z,96267.00
2023-05-26T10:19:39.995Z,96263.00
2023-05-26T10:20:40.043Z,96265.00
2023-05-26T10:21:40.040Z,96263.00
2023-05-26T10:22:40.185Z,96261.00
2023-05-26T10:23:40.121Z,96263.00
2023-05-26T10:24:40.184Z,96263.00
2023-05-26T10:25:39.203Z,96265.00
2023-05-26T10:26:39.241Z,96263.00
2023-05-26T10:27:40.270Z,96263.00
2023-05-26T10:28:40.277Z,96265.00
2023-05-26T10:29:40.293Z,96259.00
2023-05-26T10:30:40.321Z,96261.00
2023-05-26T10:31:40.448Z,96257.00
2023-05-26T10:32:40.417Z,96259.00
2023-05-26T10:33:40.471Z,96255.00
2023-05-26T10:34:41.808Z,96255.00
2023-05-26T10:35:40.515Z,96253.00
2023-05-26T10:36:40.469Z,96255.00
2023-05-26T10:37:40.455Z,96253.00
2023-05-26T10:38:39.456Z,96257.00
2023-05-26T10:39:40.443Z,96250.00
2023-05-26T10:40:40.547Z,96255.00
2023-05-26T10:41:40.481Z,96252.00
2023-05-26T10:42:40.462Z,96248.00
2023-05-26T10:43:39.450Z,96250.00
2023-05-26T10:44:39.453Z,96248.00
2023-05-26T10:45:40.444Z,96248.00
2023-05-26T10:46:40.637Z,96246.00
2023-05-26T10:47:39.450Z,96242.00
2023-05-26T10:48:39.422Z,96242.00
2023-05-26T10:49:39.437Z,96238.00
2023-05-26T10:50:39.397Z,96238.00
2023-05-26T10:51:39.405Z,96238.00
2023-05-26T10:52:39.360Z,96238.00
2023-05-26T10:53:40.361Z,96236.00
2023-05-26T10:54:40.372Z,96234.00
2023-05-26T10:55:39.444Z,96230.00
2023-05-26T10:56:39.450Z,96228.00
2023-05-26T10:57:40.491Z,96232.00
2023-05-26T10:58:40.541Z,96230.00
2023-05-26T10:59:39.600Z,96226.00
2023-05-26T11:00:39.689Z,96222.00
2023-05-26T11:01:40.658Z,96222.00
2023-05-26T11:02:39.774Z,96220.00
2023-05-26T11:03:40.875Z,96220.00
2023-05-26T11:04:40.729Z,96216.00
2023-05-26T11:05:40.779Z,96214.00
2023-05-26T11:06:40.775Z,96218.00
2023-05-26T11:07:40.747Z,96214.00
2023-05-26T11:08:40.842Z,96214.00
2023-05-26T11:09:40.887Z,96216.00
2023-05-26T11:10:40.897Z,96214.00
2023-05-26T11:11:40.950Z,96214.00
2023-05-26T11:12:40.964Z,96214.00
2023-05-26T11:13:41.130Z,96214.00
2023-05-26T11:14:41.074Z,96216.00
2023-05-26T11:15:40.109Z,96216.00
2023-05-26T11:16:41.212Z,96212.00
2023-05-26T11:17:41.242Z,96210.00
2023-05-26T11:18:41.252Z,96210.00
2023-05-26T11:19:40.234Z,96210.00
2023-05-26T11:20:41.431Z,96206.00
2023-05-26T11:21:41.322Z,96205.00
2023-05-26T11:22:41.360Z,96206.00
2023-05-26T11:23:41.371Z,96203.00
2023-05-26T11:24:40.438Z,96206.00
2023-05-26T11:25:41.479Z,96203.00
2023-05-26T11:26:40.474Z,96205.00
2023-05-26T11:27:41.491Z,96206.00
2023-05-26T11:28:41.652Z,96203.00
2023-05-26T11:29:40.604Z,96206.00
2023-05-26T11:30:41.617Z,96203.00
2023-05-26T11:31:42.554Z,96201.00
2023-05-26T11:32:41.686Z,96197.00
2023-05-26T11:33:40.744Z,96195.00
2023-05-26T11:34:41.792Z,96193.00
2023-05-26T11:35:41.788Z,96197.00
2023-05-26T11:36:40.830Z,96199.00
2023-05-26T11:37:41.914Z,96193.00
2023-05-26T11:38:41.876Z,96195.00
2023-05-26T11:39:41.919Z,96197.00
2023-05-26T11:40:41.987Z,96197.00
2023-05-26T11:41:42.036Z,96199.00
2023-05-26T11:42:42.035Z,96195.00
2023-05-26T11:43:42.044Z,96197.00
2023-05-26T11:44:42.100Z,96195.00